sensor_id;sensor_type;location;lat;lon;timestamp;P1;durP1;ratioP1;P2;durP2;ratioP2
42616;SDS011;28250;52.320;0.360;2024-01-07T00:02:18;2.22;;;1.73;;
42616;SDS011;28250;52.320;0.360;2024-01-07T00:04:45;5.88;;;1.77;;
42616;SDS011;28250;52.320;0.360;2024-01-07T00:07:11;4.28;;;1.75;;
42616;SDS011;28250;52.320;0.360;2024-01-07T00:09:37;8.00;;;1.60;;
42616;SDS011;28250;52.320;0.360;2024-01-07T00:12:03;4.47;;;1.50;;
42616;SDS011;28250;52.320;0.360;2024-01-07T00:14:29;4.00;;;1.63;;
42616;SDS011;28250;52.320;0.360;2024-01-07T00:16:55;5.25;;;1.50;;
42616;SDS011;28250;52.320;0.360;2024-01-07T00:19:21;6.32;;;2.20;;
42616;SDS011;28250;52.320;0.360;2024-01-07T00:21:48;2.95;;;1.30;;
42616;SDS011;28250;52.320;0.360;2024-01-07T00:24:15;4.53;;;1.83;;
42616;SDS011;28250;52.320;0.360;2024-01-07T00:26:41;4.32;;;1.92;;
42616;SDS011;28250;52.320;0.360;2024-01-07T00:29:07;6.32;;;1.70;;
42616;SDS011;28250;52.320;0.360;2024-01-07T00:31:33;7.13;;;1.75;;
42616;SDS011;28250;52.320;0.360;2024-01-07T00:34:00;7.50;;;1.70;;
42616;SDS011;28250;52.320;0.360;2024-01-07T00:36:26;3.97;;;1.80;;
42616;SDS011;28250;52.320;0.360;2024-01-07T00:38:52;4.20;;;1.48;;
42616;SDS011;28250;52.320;0.360;2024-01-07T00:41:18;6.28;;;2.33;;
42616;SDS011;28250;52.320;0.360;2024-01-07T00:43:44;5.80;;;1.70;;
42616;SDS011;28250;52.320;0.360;2024-01-07T00:46:10;6.57;;;2.30;;
42616;SDS011;28250;52.320;0.360;2024-01-07T00:48:36;4.55;;;1.40;;
42616;SDS011;28250;52.320;0.360;2024-01-07T00:51:03;4.20;;;1.98;;
42616;SDS011;28250;52.320;0.360;2024-01-07T00:53:29;3.70;;;1.88;;
42616;SDS011;28250;52.320;0.360;2024-01-07T00:55:55;3.20;;;1.60;;
42616;SDS011;28250;52.320;0.360;2024-01-07T00:58:22;5.25;;;1.65;;
42616;SDS011;28250;52.320;0.360;2024-01-07T01:00:48;2.60;;;1.88;;
42616;SDS011;28250;52.320;0.360;2024-01-07T01:03:15;3.20;;;1.65;;
42616;SDS011;28250;52.320;0.360;2024-01-07T01:05:41;4.72;;;1.80;;
42616;SDS011;28250;52.320;0.360;2024-01-07T01:08:07;2.85;;;1.55;;
42616;SDS011;28250;52.320;0.360;2024-01-07T01:10:33;2.95;;;1.50;;
42616;SDS011;28250;52.320;0.360;2024-01-07T01:12:59;4.50;;;1.70;;
42616;SDS011;28250;52.320;0.360;2024-01-07T01:15:25;4.13;;;1.55;;
42616;SDS011;28250;52.320;0.360;2024-01-07T01:17:51;6.68;;;1.30;;
42616;SDS011;28250;52.320;0.360;2024-01-07T01:20:17;5.85;;;2.15;;
42616;SDS011;28250;52.320;0.360;2024-01-07T01:22:43;5.47;;;1.58;;
42616;SDS011;28250;52.320;0.360;2024-01-07T01:25:10;3.47;;;1.48;;
42616;SDS011;28250;52.320;0.360;2024-01-07T01:27:36;4.05;;;1.55;;
42616;SDS011;28250;52.320;0.360;2024-01-07T01:30:03;3.22;;;1.73;;
42616;SDS011;28250;52.320;0.360;2024-01-07T01:32:29;5.43;;;1.42;;
42616;SDS011;28250;52.320;0.360;2024-01-07T01:34:56;11.10;;;2.08;;
42616;SDS011;28250;52.320;0.360;2024-01-07T01:37:22;3.67;;;1.20;;
42616;SDS011;28250;52.320;0.360;2024-01-07T01:39:48;2.35;;;1.42;;
42616;SDS011;28250;52.320;0.360;2024-01-07T01:42:14;2.72;;;1.33;;
42616;SDS011;28250;52.320;0.360;2024-01-07T01:44:40;4.82;;;1.25;;
42616;SDS011;28250;52.320;0.360;2024-01-07T01:47:07;2.17;;;0.85;;
42616;SDS011;28250;52.320;0.360;2024-01-07T01:49:33;5.25;;;1.65;;
42616;SDS011;28250;52.320;0.360;2024-01-07T01:52:02;2.58;;;1.15;;
42616;SDS011;28250;52.320;0.360;2024-01-07T01:54:28;7.88;;;1.70;;
42616;SDS011;28250;52.320;0.360;2024-01-07T01:56:54;4.88;;;2.05;;
42616;SDS011;28250;52.320;0.360;2024-01-07T01:59:21;2.13;;;1.35;;
42616;SDS011;28250;52.320;0.360;2024-01-07T02:01:47;4.07;;;1.70;;
42616;SDS011;28250;52.320;0.360;2024-01-07T02:04:14;3.75;;;1.15;;
42616;SDS011;28250;52.320;0.360;2024-01-07T02:09:07;1.93;;;1.10;;
42616;SDS011;28250;52.320;0.360;2024-01-07T02:11:33;1.83;;;0.95;;
42616;SDS011;28250;52.320;0.360;2024-01-07T02:13:59;2.60;;;1.02;;
42616;SDS011;28250;52.320;0.360;2024-01-07T02:16:25;4.20;;;1.08;;
42616;SDS011;28250;52.320;0.360;2024-01-07T02:18:51;4.57;;;1.50;;
42616;SDS011;28250;52.320;0.360;2024-01-07T02:21:18;3.53;;;2.00;;
42616;SDS011;28250;52.320;0.360;2024-01-07T02:23:44;4.95;;;1.20;;
42616;SDS011;28250;52.320;0.360;2024-01-07T02:26:10;3.20;;;1.30;;
42616;SDS011;28250;52.320;0.360;2024-01-07T02:28:36;2.95;;;1.65;;
42616;SDS011;28250;52.320;0.360;2024-01-07T02:31:02;4.68;;;2.53;;
42616;SDS011;28250;52.320;0.360;2024-01-07T02:33:28;5.07;;;1.60;;
42616;SDS011;28250;52.320;0.360;2024-01-07T02:38:23;6.63;;;1.27;;
42616;SDS011;28250;52.320;0.360;2024-01-07T02:40:49;2.40;;;1.10;;
42616;SDS011;28250;52.320;0.360;2024-01-07T02:43:15;4.43;;;1.10;;
42616;SDS011;28250;52.320;0.360;2024-01-07T02:45:41;3.65;;;1.55;;
42616;SDS011;28250;52.320;0.360;2024-01-07T02:48:07;7.03;;;1.20;;
42616;SDS011;28250;52.320;0.360;2024-01-07T02:50:34;4.07;;;1.50;;
42616;SDS011;28250;52.320;0.360;2024-01-07T02:53:00;2.20;;;1.27;;
42616;SDS011;28250;52.320;0.360;2024-01-07T02:55:26;2.60;;;1.00;;
42616;SDS011;28250;52.320;0.360;2024-01-07T02:57:52;3.85;;;1.40;;
42616;SDS011;28250;52.320;0.360;2024-01-07T03:00:19;3.70;;;0.97;;
42616;SDS011;28250;52.320;0.360;2024-01-07T03:02:45;4.43;;;1.00;;
42616;SDS011;28250;52.320;0.360;2024-01-07T03:05:12;2.88;;;1.30;;
42616;SDS011;28250;52.320;0.360;2024-01-07T03:07:38;3.72;;;1.40;;
42616;SDS011;28250;52.320;0.360;2024-01-07T03:10:05;6.80;;;1.48;;
42616;SDS011;28250;52.320;0.360;2024-01-07T03:12:32;4.57;;;1.38;;
42616;SDS011;28250;52.320;0.360;2024-01-07T03:15:04;2.42;;;1.38;;
42616;SDS011;28250;52.320;0.360;2024-01-07T03:17:31;5.35;;;1.70;;
42616;SDS011;28250;52.320;0.360;2024-01-07T03:19:57;2.78;;;1.20;;
42616;SDS011;28250;52.320;0.360;2024-01-07T03:22:23;3.30;;;1.20;;
42616;SDS011;28250;52.320;0.360;2024-01-07T03:24:49;4.00;;;1.55;;
42616;SDS011;28250;52.320;0.360;2024-01-07T03:27:15;2.38;;;1.17;;
42616;SDS011;28250;52.320;0.360;2024-01-07T03:29:41;2.47;;;1.08;;
42616;SDS011;28250;52.320;0.360;2024-01-07T03:32:07;7.03;;;1.52;;
42616;SDS011;28250;52.320;0.360;2024-01-07T03:34:33;2.72;;;1.30;;
42616;SDS011;28250;52.320;0.360;2024-01-07T03:36:59;4.35;;;1.13;;
42616;SDS011;28250;52.320;0.360;2024-01-07T03:39:25;2.55;;;1.42;;
42616;SDS011;28250;52.320;0.360;2024-01-07T03:41:55;6.93;;;1.40;;
42616;SDS011;28250;52.320;0.360;2024-01-07T03:44:21;6.43;;;1.42;;
42616;SDS011;28250;52.320;0.360;2024-01-07T03:46:48;1.20;;;0.85;;
42616;SDS011;28250;52.320;0.360;2024-01-07T03:49:14;4.35;;;1.30;;
42616;SDS011;28250;52.320;0.360;2024-01-07T03:51:40;2.95;;;1.48;;
42616;SDS011;28250;52.320;0.360;2024-01-07T03:54:06;5.43;;;1.83;;
42616;SDS011;28250;52.320;0.360;2024-01-07T03:56:32;3.42;;;1.10;;
42616;SDS011;28250;52.320;0.360;2024-01-07T03:58:58;4.03;;;1.25;;
42616;SDS011;28250;52.320;0.360;2024-01-07T04:01:24;3.85;;;1.17;;
42616;SDS011;28250;52.320;0.360;2024-01-07T04:03:50;3.95;;;1.05;;
42616;SDS011;28250;52.320;0.360;2024-01-07T04:06:16;4.97;;;1.02;;
42616;SDS011;28250;52.320;0.360;2024-01-07T04:08:42;2.28;;;0.98;;
42616;SDS011;28250;52.320;0.360;2024-01-07T04:11:08;3.65;;;0.98;;
42616;SDS011;28250;52.320;0.360;2024-01-07T04:13:34;3.95;;;1.20;;
42616;SDS011;28250;52.320;0.360;2024-01-07T04:16:01;3.67;;;0.95;;
42616;SDS011;28250;52.320;0.360;2024-01-07T04:18:28;2.38;;;1.30;;
42616;SDS011;28250;52.320;0.360;2024-01-07T04:20:54;2.28;;;0.90;;
42616;SDS011;28250;52.320;0.360;2024-01-07T04:23:20;3.38;;;0.90;;
42616;SDS011;28250;52.320;0.360;2024-01-07T04:25:46;3.55;;;1.05;;
42616;SDS011;28250;52.320;0.360;2024-01-07T04:28:12;2.45;;;1.00;;
42616;SDS011;28250;52.320;0.360;2024-01-07T04:30:38;2.67;;;1.10;;
42616;SDS011;28250;52.320;0.360;2024-01-07T04:33:04;5.32;;;1.13;;
42616;SDS011;28250;52.320;0.360;2024-01-07T04:35:30;6.15;;;1.20;;
42616;SDS011;28250;52.320;0.360;2024-01-07T04:37:56;3.60;;;1.10;;
42616;SDS011;28250;52.320;0.360;2024-01-07T04:40:22;5.05;;;0.95;;
42616;SDS011;28250;52.320;0.360;2024-01-07T04:42:48;3.55;;;1.00;;
42616;SDS011;28250;52.320;0.360;2024-01-07T04:45:15;6.82;;;2.88;;
42616;SDS011;28250;52.320;0.360;2024-01-07T04:47:41;5.72;;;1.80;;
42616;SDS011;28250;52.320;0.360;2024-01-07T04:50:07;3.33;;;1.38;;
42616;SDS011;28250;52.320;0.360;2024-01-07T04:52:33;3.17;;;1.23;;
42616;SDS011;28250;52.320;0.360;2024-01-07T04:54:59;3.08;;;1.17;;
42616;SDS011;28250;52.320;0.360;2024-01-07T04:57:25;4.07;;;1.02;;
42616;SDS011;28250;52.320;0.360;2024-01-07T04:59:51;3.33;;;1.55;;
42616;SDS011;28250;52.320;0.360;2024-01-07T05:02:18;2.70;;;1.10;;
42616;SDS011;28250;52.320;0.360;2024-01-07T05:04:45;2.72;;;1.20;;
42616;SDS011;28250;52.320;0.360;2024-01-07T05:07:11;5.70;;;1.23;;
42616;SDS011;28250;52.320;0.360;2024-01-07T05:09:37;2.95;;;0.98;;
42616;SDS011;28250;52.320;0.360;2024-01-07T05:12:04;1.13;;;0.93;;
42616;SDS011;28250;52.320;0.360;2024-01-07T05:14:31;2.42;;;1.15;;
42616;SDS011;28250;52.320;0.360;2024-01-07T05:16:57;3.55;;;1.17;;
42616;SDS011;28250;52.320;0.360;2024-01-07T05:19:23;1.65;;;0.90;;
42616;SDS011;28250;52.320;0.360;2024-01-07T05:21:49;2.35;;;0.80;;
42616;SDS011;28250;52.320;0.360;2024-01-07T05:24:15;6.45;;;1.00;;
42616;SDS011;28250;52.320;0.360;2024-01-07T05:26:42;2.15;;;0.85;;
42616;SDS011;28250;52.320;0.360;2024-01-07T05:29:09;8.77;;;1.15;;
42616;SDS011;28250;52.320;0.360;2024-01-07T05:31:37;1.65;;;0.90;;
42616;SDS011;28250;52.320;0.360;2024-01-07T05:34:05;2.47;;;0.90;;
42616;SDS011;28250;52.320;0.360;2024-01-07T05:36:31;1.50;;;1.02;;
42616;SDS011;28250;52.320;0.360;2024-01-07T05:38:57;2.20;;;0.70;;
42616;SDS011;28250;52.320;0.360;2024-01-07T05:41:23;2.78;;;0.68;;
42616;SDS011;28250;52.320;0.360;2024-01-07T05:43:50;3.20;;;0.80;;
42616;SDS011;28250;52.320;0.360;2024-01-07T05:46:16;1.20;;;0.43;;
42616;SDS011;28250;52.320;0.360;2024-01-07T05:48:43;1.85;;;0.70;;
42616;SDS011;28250;52.320;0.360;2024-01-07T05:51:11;2.50;;;0.80;;
42616;SDS011;28250;52.320;0.360;2024-01-07T05:56:04;2.88;;;0.88;;
42616;SDS011;28250;52.320;0.360;2024-01-07T05:58:31;2.05;;;0.70;;
42616;SDS011;28250;52.320;0.360;2024-01-07T06:00:57;3.13;;;0.50;;
42616;SDS011;28250;52.320;0.360;2024-01-07T06:03:23;1.90;;;0.57;;
42616;SDS011;28250;52.320;0.360;2024-01-07T06:05:49;0.47;;;0.43;;
42616;SDS011;28250;52.320;0.360;2024-01-07T06:08:15;1.70;;;0.40;;
42616;SDS011;28250;52.320;0.360;2024-01-07T06:10:42;3.50;;;0.60;;
42616;SDS011;28250;52.320;0.360;2024-01-07T06:13:08;4.22;;;0.93;;
42616;SDS011;28250;52.320;0.360;2024-01-07T06:15:34;1.42;;;0.65;;
42616;SDS011;28250;52.320;0.360;2024-01-07T06:18:01;2.27;;;0.80;;
42616;SDS011;28250;52.320;0.360;2024-01-07T06:20:27;3.28;;;0.93;;
42616;SDS011;28250;52.320;0.360;2024-01-07T06:22:53;2.10;;;0.73;;
42616;SDS011;28250;52.320;0.360;2024-01-07T06:25:19;2.88;;;0.80;;
42616;SDS011;28250;52.320;0.360;2024-01-07T06:27:45;1.95;;;0.60;;
42616;SDS011;28250;52.320;0.360;2024-01-07T06:30:12;3.22;;;0.68;;
42616;SDS011;28250;52.320;0.360;2024-01-07T06:32:39;1.25;;;0.70;;
42616;SDS011;28250;52.320;0.360;2024-01-07T06:35:05;2.50;;;0.95;;
42616;SDS011;28250;52.320;0.360;2024-01-07T06:37:31;1.13;;;0.40;;
42616;SDS011;28250;52.320;0.360;2024-01-07T06:39:57;3.35;;;0.80;;
42616;SDS011;28250;52.320;0.360;2024-01-07T06:42:24;1.90;;;0.65;;
42616;SDS011;28250;52.320;0.360;2024-01-07T06:44:50;2.05;;;0.50;;
42616;SDS011;28250;52.320;0.360;2024-01-07T06:47:16;2.25;;;0.80;;
42616;SDS011;28250;52.320;0.360;2024-01-07T06:49:42;1.70;;;0.57;;
42616;SDS011;28250;52.320;0.360;2024-01-07T06:52:08;1.52;;;0.50;;
42616;SDS011;28250;52.320;0.360;2024-01-07T06:54:34;2.03;;;0.52;;
42616;SDS011;28250;52.320;0.360;2024-01-07T06:57:00;3.08;;;0.68;;
42616;SDS011;28250;52.320;0.360;2024-01-07T06:59:27;2.85;;;1.05;;
42616;SDS011;28250;52.320;0.360;2024-01-07T07:01:53;2.28;;;1.05;;
42616;SDS011;28250;52.320;0.360;2024-01-07T07:04:21;1.20;;;0.70;;
42616;SDS011;28250;52.320;0.360;2024-01-07T07:06:48;1.13;;;0.60;;
42616;SDS011;28250;52.320;0.360;2024-01-07T07:09:14;1.52;;;0.70;;
42616;SDS011;28250;52.320;0.360;2024-01-07T07:11:40;1.50;;;0.50;;
42616;SDS011;28250;52.320;0.360;2024-01-07T07:14:06;1.15;;;0.50;;
42616;SDS011;28250;52.320;0.360;2024-01-07T07:16:32;3.60;;;0.70;;
42616;SDS011;28250;52.320;0.360;2024-01-07T07:18:59;1.95;;;0.70;;
42616;SDS011;28250;52.320;0.360;2024-01-07T07:21:25;2.78;;;1.00;;
42616;SDS011;28250;52.320;0.360;2024-01-07T07:23:52;1.02;;;0.60;;
42616;SDS011;28250;52.320;0.360;2024-01-07T07:26:19;3.08;;;0.50;;
42616;SDS011;28250;52.320;0.360;2024-01-07T07:28:45;7.10;;;0.90;;
42616;SDS011;28250;52.320;0.360;2024-01-07T07:31:12;3.58;;;1.25;;
42616;SDS011;28250;52.320;0.360;2024-01-07T07:33:38;3.50;;;1.15;;
42616;SDS011;28250;52.320;0.360;2024-01-07T07:36:05;2.05;;;0.85;;
42616;SDS011;28250;52.320;0.360;2024-01-07T07:38:32;2.35;;;0.85;;
42616;SDS011;28250;52.320;0.360;2024-01-07T07:40:59;2.83;;;0.80;;
42616;SDS011;28250;52.320;0.360;2024-01-07T07:43:26;3.45;;;1.00;;
42616;SDS011;28250;52.320;0.360;2024-01-07T07:45:52;3.17;;;1.30;;
42616;SDS011;28250;52.320;0.360;2024-01-07T07:48:18;3.28;;;0.98;;
42616;SDS011;28250;52.320;0.360;2024-01-07T07:50:45;3.53;;;0.87;;
42616;SDS011;28250;52.320;0.360;2024-01-07T07:53:11;6.55;;;1.05;;
42616;SDS011;28250;52.320;0.360;2024-01-07T07:55:37;1.80;;;0.85;;
42616;SDS011;28250;52.320;0.360;2024-01-07T07:58:03;4.30;;;1.02;;
42616;SDS011;28250;52.320;0.360;2024-01-07T08:00:29;4.13;;;1.05;;
42616;SDS011;28250;52.320;0.360;2024-01-07T08:02:55;3.05;;;0.90;;
42616;SDS011;28250;52.320;0.360;2024-01-07T08:05:21;2.40;;;0.98;;
42616;SDS011;28250;52.320;0.360;2024-01-07T08:07:47;4.40;;;0.70;;
42616;SDS011;28250;52.320;0.360;2024-01-07T08:10:14;2.85;;;0.90;;
42616;SDS011;28250;52.320;0.360;2024-01-07T08:12:40;4.70;;;1.02;;
42616;SDS011;28250;52.320;0.360;2024-01-07T08:15:06;2.17;;;0.90;;
42616;SDS011;28250;52.320;0.360;2024-01-07T08:17:33;3.08;;;0.90;;
42616;SDS011;28250;52.320;0.360;2024-01-07T08:19:59;3.05;;;1.70;;
42616;SDS011;28250;52.320;0.360;2024-01-07T08:22:26;2.97;;;1.08;;
42616;SDS011;28250;52.320;0.360;2024-01-07T08:24:52;2.75;;;0.80;;
42616;SDS011;28250;52.320;0.360;2024-01-07T08:27:19;2.08;;;1.00;;
42616;SDS011;28250;52.320;0.360;2024-01-07T08:29:45;3.95;;;1.10;;
42616;SDS011;28250;52.320;0.360;2024-01-07T08:32:11;1.10;;;0.68;;
42616;SDS011;28250;52.320;0.360;2024-01-07T08:34:38;2.70;;;0.93;;
42616;SDS011;28250;52.320;0.360;2024-01-07T08:37:07;2.50;;;0.93;;
42616;SDS011;28250;52.320;0.360;2024-01-07T08:39:34;1.85;;;0.90;;
42616;SDS011;28250;52.320;0.360;2024-01-07T08:42:01;5.40;;;1.35;;
42616;SDS011;28250;52.320;0.360;2024-01-07T08:44:29;2.60;;;0.95;;
42616;SDS011;28250;52.320;0.360;2024-01-07T08:46:55;1.60;;;1.00;;
42616;SDS011;28250;52.320;0.360;2024-01-07T08:49:21;6.88;;;1.40;;
42616;SDS011;28250;52.320;0.360;2024-01-07T08:51:47;3.85;;;1.08;;
42616;SDS011;28250;52.320;0.360;2024-01-07T08:54:13;6.75;;;0.98;;
42616;SDS011;28250;52.320;0.360;2024-01-07T08:56:39;2.00;;;1.02;;
42616;SDS011;28250;52.320;0.360;2024-01-07T08:59:05;2.22;;;1.02;;
42616;SDS011;28250;52.320;0.360;2024-01-07T09:01:31;4.18;;;1.10;;
42616;SDS011;28250;52.320;0.360;2024-01-07T09:03:57;4.07;;;1.13;;
42616;SDS011;28250;52.320;0.360;2024-01-07T09:06:24;2.45;;;0.93;;
42616;SDS011;28250;52.320;0.360;2024-01-07T09:08:51;3.65;;;1.25;;
42616;SDS011;28250;52.320;0.360;2024-01-07T09:11:20;3.17;;;1.38;;
42616;SDS011;28250;52.320;0.360;2024-01-07T09:13:47;3.13;;;1.20;;
42616;SDS011;28250;52.320;0.360;2024-01-07T09:16:16;4.55;;;1.05;;
42616;SDS011;28250;52.320;0.360;2024-01-07T09:18:42;2.47;;;1.40;;
42616;SDS011;28250;52.320;0.360;2024-01-07T09:21:11;2.25;;;0.88;;
42616;SDS011;28250;52.320;0.360;2024-01-07T09:23:38;2.60;;;1.40;;
42616;SDS011;28250;52.320;0.360;2024-01-07T09:26:04;7.53;;;1.30;;
42616;SDS011;28250;52.320;0.360;2024-01-07T09:28:30;3.30;;;1.38;;
42616;SDS011;28250;52.320;0.360;2024-01-07T09:30:56;4.03;;;1.30;;
42616;SDS011;28250;52.320;0.360;2024-01-07T09:33:23;3.35;;;0.90;;
42616;SDS011;28250;52.320;0.360;2024-01-07T09:35:52;2.83;;;1.13;;
42616;SDS011;28250;52.320;0.360;2024-01-07T09:38:19;2.95;;;1.50;;
42616;SDS011;28250;52.320;0.360;2024-01-07T09:40:46;5.10;;;1.50;;
42616;SDS011;28250;52.320;0.360;2024-01-07T09:43:12;7.70;;;2.00;;
42616;SDS011;28250;52.320;0.360;2024-01-07T09:45:39;3.25;;;1.30;;
42616;SDS011;28250;52.320;0.360;2024-01-07T09:48:13;9.60;;;2.00;;
42616;SDS011;28250;52.320;0.360;2024-01-07T09:50:40;1.83;;;1.27;;
42616;SDS011;28250;52.320;0.360;2024-01-07T09:53:07;8.85;;;1.67;;
42616;SDS011;28250;52.320;0.360;2024-01-07T09:55:40;5.18;;;1.30;;
42616;SDS011;28250;52.320;0.360;2024-01-07T09:58:31;5.43;;;1.58;;
42616;SDS011;28250;52.320;0.360;2024-01-07T10:00:57;5.82;;;1.38;;
42616;SDS011;28250;52.320;0.360;2024-01-07T10:03:25;2.55;;;1.30;;
42616;SDS011;28250;52.320;0.360;2024-01-07T10:05:51;8.48;;;1.60;;
42616;SDS011;28250;52.320;0.360;2024-01-07T10:08:18;5.00;;;1.48;;
42616;SDS011;28250;52.320;0.360;2024-01-07T10:10:45;4.15;;;1.55;;
42616;SDS011;28250;52.320;0.360;2024-01-07T10:13:14;5.30;;;1.77;;
42616;SDS011;28250;52.320;0.360;2024-01-07T10:15:40;5.32;;;1.30;;
42616;SDS011;28250;52.320;0.360;2024-01-07T10:18:07;7.70;;;1.10;;
42616;SDS011;28250;52.320;0.360;2024-01-07T10:20:33;6.18;;;1.42;;
42616;SDS011;28250;52.320;0.360;2024-01-07T10:23:00;4.95;;;1.33;;
42616;SDS011;28250;52.320;0.360;2024-01-07T10:25:30;9.07;;;1.50;;
42616;SDS011;28250;52.320;0.360;2024-01-07T10:28:01;2.67;;;1.40;;
42616;SDS011;28250;52.320;0.360;2024-01-07T10:30:28;2.55;;;1.20;;
42616;SDS011;28250;52.320;0.360;2024-01-07T10:32:57;3.22;;;1.40;;
42616;SDS011;28250;52.320;0.360;2024-01-07T10:35:28;5.30;;;1.42;;
42616;SDS011;28250;52.320;0.360;2024-01-07T10:37:59;4.53;;;1.27;;
42616;SDS011;28250;52.320;0.360;2024-01-07T10:42:57;7.40;;;1.38;;
42616;SDS011;28250;52.320;0.360;2024-01-07T10:45:24;5.35;;;1.33;;
42616;SDS011;28250;52.320;0.360;2024-01-07T10:47:50;6.25;;;1.20;;
42616;SDS011;28250;52.320;0.360;2024-01-07T10:50:20;6.03;;;1.27;;
42616;SDS011;28250;52.320;0.360;2024-01-07T10:55:18;5.10;;;0.98;;
42616;SDS011;28250;52.320;0.360;2024-01-07T10:57:47;3.90;;;1.65;;
42616;SDS011;28250;52.320;0.360;2024-01-07T11:00:18;6.28;;;1.70;;
42616;SDS011;28250;52.320;0.360;2024-01-07T11:08:45;5.35;;;1.48;;
42616;SDS011;28250;52.320;0.360;2024-01-07T11:11:31;6.97;;;1.70;;
42616;SDS011;28250;52.320;0.360;2024-01-07T11:14:03;4.28;;;1.38;;
42616;SDS011;28250;52.320;0.360;2024-01-07T11:16:41;6.40;;;1.30;;
42616;SDS011;28250;52.320;0.360;2024-01-07T11:19:14;4.50;;;1.95;;
42616;SDS011;28250;52.320;0.360;2024-01-07T11:21:40;5.57;;;1.67;;
42616;SDS011;28250;52.320;0.360;2024-01-07T11:24:06;4.88;;;1.40;;
42616;SDS011;28250;52.320;0.360;2024-01-07T11:26:32;3.47;;;1.58;;
42616;SDS011;28250;52.320;0.360;2024-01-07T11:29:00;6.68;;;1.50;;
42616;SDS011;28250;52.320;0.360;2024-01-07T11:34:04;2.58;;;1.38;;
42616;SDS011;28250;52.320;0.360;2024-01-07T11:36:31;2.72;;;1.38;;
42616;SDS011;28250;52.320;0.360;2024-01-07T11:39:02;6.18;;;1.80;;
42616;SDS011;28250;52.320;0.360;2024-01-07T11:41:31;3.05;;;1.20;;
42616;SDS011;28250;52.320;0.360;2024-01-07T11:43:59;6.82;;;1.63;;
42616;SDS011;28250;52.320;0.360;2024-01-07T11:46:26;6.30;;;1.63;;
42616;SDS011;28250;52.320;0.360;2024-01-07T11:48:53;5.45;;;1.17;;
42616;SDS011;28250;52.320;0.360;2024-01-07T11:51:24;2.10;;;1.40;;
42616;SDS011;28250;52.320;0.360;2024-01-07T11:53:51;4.13;;;1.48;;
42616;SDS011;28250;52.320;0.360;2024-01-07T11:56:18;5.22;;;1.27;;
42616;SDS011;28250;52.320;0.360;2024-01-07T11:58:44;5.13;;;2.53;;
42616;SDS011;28250;52.320;0.360;2024-01-07T12:01:10;6.00;;;2.03;;
42616;SDS011;28250;52.320;0.360;2024-01-07T12:03:36;3.22;;;1.63;;
42616;SDS011;28250;52.320;0.360;2024-01-07T12:06:03;6.18;;;1.60;;
42616;SDS011;28250;52.320;0.360;2024-01-07T12:08:30;4.85;;;1.10;;
42616;SDS011;28250;52.320;0.360;2024-01-07T12:10:56;4.50;;;1.52;;
42616;SDS011;28250;52.320;0.360;2024-01-07T12:13:22;3.47;;;1.15;;
42616;SDS011;28250;52.320;0.360;2024-01-07T12:15:49;5.15;;;1.17;;
42616;SDS011;28250;52.320;0.360;2024-01-07T12:18:15;5.47;;;1.70;;
42616;SDS011;28250;52.320;0.360;2024-01-07T12:20:41;8.25;;;1.30;;
42616;SDS011;28250;52.320;0.360;2024-01-07T12:23:08;4.95;;;1.35;;
42616;SDS011;28250;52.320;0.360;2024-01-07T12:25:36;4.78;;;1.20;;
42616;SDS011;28250;52.320;0.360;2024-01-07T12:28:02;1.50;;;0.88;;
42616;SDS011;28250;52.320;0.360;2024-01-07T12:30:32;3.65;;;1.20;;
42616;SDS011;28250;52.320;0.360;2024-01-07T12:32:58;5.63;;;1.20;;
42616;SDS011;28250;52.320;0.360;2024-01-07T12:35:25;4.20;;;1.00;;
42616;SDS011;28250;52.320;0.360;2024-01-07T12:37:52;9.60;;;1.13;;
42616;SDS011;28250;52.320;0.360;2024-01-07T12:40:18;3.42;;;1.10;;
42616;SDS011;28250;52.320;0.360;2024-01-07T12:42:45;3.30;;;1.23;;
42616;SDS011;28250;52.320;0.360;2024-01-07T12:45:15;2.97;;;1.20;;
42616;SDS011;28250;52.320;0.360;2024-01-07T12:47:41;5.85;;;1.05;;
42616;SDS011;28250;52.320;0.360;2024-01-07T12:50:11;4.25;;;1.38;;
42616;SDS011;28250;52.320;0.360;2024-01-07T12:52:40;7.05;;;1.25;;
42616;SDS011;28250;52.320;0.360;2024-01-07T12:55:06;5.78;;;1.25;;
42616;SDS011;28250;52.320;0.360;2024-01-07T12:57:33;5.30;;;1.30;;
42616;SDS011;28250;52.320;0.360;2024-01-07T13:00:00;6.07;;;1.20;;
42616;SDS011;28250;52.320;0.360;2024-01-07T13:02:27;6.05;;;1.50;;
42616;SDS011;28250;52.320;0.360;2024-01-07T13:04:53;3.00;;;1.30;;
42616;SDS011;28250;52.320;0.360;2024-01-07T13:07:19;6.80;;;1.30;;
42616;SDS011;28250;52.320;0.360;2024-01-07T13:09:45;4.28;;;1.33;;
42616;SDS011;28250;52.320;0.360;2024-01-07T13:12:11;1.63;;;1.10;;
42616;SDS011;28250;52.320;0.360;2024-01-07T13:14:37;7.78;;;1.40;;
42616;SDS011;28250;52.320;0.360;2024-01-07T13:17:03;3.45;;;1.27;;
42616;SDS011;28250;52.320;0.360;2024-01-07T13:19:29;3.95;;;1.20;;
42616;SDS011;28250;52.320;0.360;2024-01-07T13:21:55;4.35;;;1.02;;
42616;SDS011;28250;52.320;0.360;2024-01-07T13:24:24;7.07;;;1.30;;
42616;SDS011;28250;52.320;0.360;2024-01-07T13:26:50;4.30;;;1.45;;
42616;SDS011;28250;52.320;0.360;2024-01-07T13:29:16;6.90;;;1.75;;
42616;SDS011;28250;52.320;0.360;2024-01-07T13:31:42;4.95;;;1.20;;
42616;SDS011;28250;52.320;0.360;2024-01-07T13:34:08;5.55;;;1.30;;
42616;SDS011;28250;52.320;0.360;2024-01-07T13:36:34;2.85;;;1.40;;
42616;SDS011;28250;52.320;0.360;2024-01-07T13:39:01;3.22;;;1.20;;
42616;SDS011;28250;52.320;0.360;2024-01-07T13:41:27;3.17;;;1.10;;
42616;SDS011;28250;52.320;0.360;2024-01-07T13:43:54;5.63;;;1.35;;
42616;SDS011;28250;52.320;0.360;2024-01-07T13:46:21;5.00;;;1.58;;
42616;SDS011;28250;52.320;0.360;2024-01-07T13:48:50;4.25;;;1.33;;
42616;SDS011;28250;52.320;0.360;2024-01-07T13:51:20;3.42;;;1.30;;
42616;SDS011;28250;52.320;0.360;2024-01-07T13:53:46;5.90;;;1.80;;
42616;SDS011;28250;52.320;0.360;2024-01-07T13:56:12;5.43;;;1.13;;
42616;SDS011;28250;52.320;0.360;2024-01-07T13:58:39;3.50;;;1.00;;
42616;SDS011;28250;52.320;0.360;2024-01-07T14:01:05;3.42;;;1.40;;
42616;SDS011;28250;52.320;0.360;2024-01-07T14:03:31;3.27;;;1.33;;
42616;SDS011;28250;52.320;0.360;2024-01-07T14:05:58;3.47;;;1.10;;
42616;SDS011;28250;52.320;0.360;2024-01-07T14:10:52;3.70;;;1.07;;
42616;SDS011;28250;52.320;0.360;2024-01-07T14:13:18;3.70;;;1.70;;
42616;SDS011;28250;52.320;0.360;2024-01-07T14:15:44;7.25;;;1.95;;
42616;SDS011;28250;52.320;0.360;2024-01-07T14:18:10;4.95;;;1.27;;
42616;SDS011;28250;52.320;0.360;2024-01-07T14:20:41;3.58;;;1.13;;
42616;SDS011;28250;52.320;0.360;2024-01-07T14:23:07;3.63;;;1.10;;
42616;SDS011;28250;52.320;0.360;2024-01-07T14:25:35;3.92;;;1.35;;
42616;SDS011;28250;52.320;0.360;2024-01-07T14:28:01;5.07;;;1.10;;
42616;SDS011;28250;52.320;0.360;2024-01-07T14:30:29;7.72;;;1.17;;
42616;SDS011;28250;52.320;0.360;2024-01-07T14:32:55;4.60;;;1.35;;
42616;SDS011;28250;52.320;0.360;2024-01-07T14:35:22;4.10;;;1.20;;
42616;SDS011;28250;52.320;0.360;2024-01-07T14:37:51;4.97;;;1.10;;
42616;SDS011;28250;52.320;0.360;2024-01-07T14:40:20;2.92;;;1.38;;
42616;SDS011;28250;52.320;0.360;2024-01-07T14:42:46;7.90;;;1.30;;
42616;SDS011;28250;52.320;0.360;2024-01-07T14:45:12;3.30;;;1.10;;
42616;SDS011;28250;52.320;0.360;2024-01-07T14:47:39;5.43;;;1.23;;
42616;SDS011;28250;52.320;0.360;2024-01-07T14:50:05;2.83;;;1.20;;
42616;SDS011;28250;52.320;0.360;2024-01-07T14:52:32;5.65;;;1.10;;
42616;SDS011;28250;52.320;0.360;2024-01-07T14:54:58;2.50;;;0.90;;
42616;SDS011;28250;52.320;0.360;2024-01-07T14:57:24;9.20;;;1.40;;
42616;SDS011;28250;52.320;0.360;2024-01-07T14:59:50;2.22;;;1.23;;
42616;SDS011;28250;52.320;0.360;2024-01-07T15:02:17;5.72;;;1.27;;
42616;SDS011;28250;52.320;0.360;2024-01-07T15:04:43;6.45;;;1.13;;
42616;SDS011;28250;52.320;0.360;2024-01-07T15:07:09;3.65;;;1.13;;
42616;SDS011;28250;52.320;0.360;2024-01-07T15:09:38;3.15;;;1.15;;